Hier das METAR für die 16 wichtigsten Deutschen Flughäfen.
(dauert ein wenig.... ich muss laden.....)

ODER
METAR nach ICAO Code suchen

Berlin - Schönefeld

EDDB

METAR
EDDB 220550Z VRB02KT 5000 BR BKN008 08/07 Q1033 TEMPO 4500 BR
EDDBMETAR lang
Berlin-Schoenefeld, Germany (EDDB) 52-23N 013-31E 50M
Mar 22, 2019 - 01:50 AM EDT / 2019.03.22 0550 UTC
Wind: Variable at 2 MPH (2 KT):0
Visibility: 3 mile(s):0
Sky conditions: mostly cloudy
Weather: mist
Temperature: 46 F (8 C)
Dew Point: 44 F (7 C)
Relative Humidity: 93%
Pressure (altimeter): 30.50 in. Hg (1033 hPa)
ob: EDDB 220550Z VRB02KT 5000 BR BKN008 08/07 Q1033 TEMPO 4500 BR
cycle: 6

Dresden

EDDC

METAR
EDDC 220550Z 21004KT 8000 NSC 04/04 Q1032 TEMPO 4500 BCFG
EDDCMETAR lang
Dresden-Klotzsche, Germany (EDDC) 51-08N 013-45E 232M
Mar 22, 2019 - 01:50 AM EDT / 2019.03.22 0550 UTC
Wind: from the SSW (210 degrees) at 5 MPH (4 KT):0
Visibility: 4 mile(s):0
Temperature: 39 F (4 C)
Dew Point: 39 F (4 C)
Relative Humidity: 100%
Pressure (altimeter): 30.47 in. Hg (1032 hPa)
ob: EDDC 220550Z 21004KT 8000 NSC 04/04 Q1032 TEMPO 4500 BCFG
cycle: 6

Erfurt

EDDE

METAR
EDDE 220550Z 21004KT CAVOK 04/03 Q1032 NOSIG
EDDEMETAR lang
Erfurt-Bindersleben, Germany (EDDE) 50-59N 010-58E 322M
Mar 22, 2019 - 01:50 AM EDT / 2019.03.22 0550 UTC
Wind: from the SSW (210 degrees) at 5 MPH (4 KT):0
Visibility: greater than 7 mile(s):0
Temperature: 39 F (4 C)
Dew Point: 37 F (3 C)
Relative Humidity: 93%
Pressure (altimeter): 30.47 in. Hg (1032 hPa)
ob: EDDE 220550Z 21004KT CAVOK 04/03 Q1032 NOSIG
cycle: 6

Frankfurt a. Main

EDDF

METAR
EDDF 220550Z 08007KT CAVOK 04/01 Q1031 NOSIG
EDDFMETAR lang
Frankfurt / M-Flughafen, Germany (EDDF) 50-03N 008-36E 113M
Mar 22, 2019 - 01:50 AM EDT / 2019.03.22 0550 UTC
Wind: from the E (080 degrees) at 8 MPH (7 KT):0
Visibility: greater than 7 mile(s):0
Temperature: 39 F (4 C)
Dew Point: 33 F (1 C)
Relative Humidity: 80%
Pressure (altimeter): 30.45 in. Hg (1031 hPa)
ob: EDDF 220550Z 08007KT CAVOK 04/01 Q1031 NOSIG
cycle: 6

Münster Osnabrück

EDDG

METAR
EDDG 220550Z VRB01KT 0100 R25/0225N FG SCT001 02/02 Q1031 BECMG OVC001
EDDGMETAR lang
Muenster / Osnabrueck, Germany (EDDG) 52-08N 007-42E 53M
Mar 22, 2019 - 01:50 AM EDT / 2019.03.22 0550 UTC
Wind: Variable at 1 MPH (1 KT):0
Visibility: less than 1 mile:0
Sky conditions: partly cloudy
Weather: fog
Temperature: 35 F (2 C)
Dew Point: 35 F (2 C)
Relative Humidity: 100%
Pressure (altimeter): 30.45 in. Hg (1031 hPa)
ob: EDDG 220550Z VRB01KT 0100 R25/0225N FG SCT001 02/02 Q1031 BECMG OVC001
cycle: 6

Hamburg

EDDH

METAR
EDDH 220550Z VRB01KT 4500 BR OVC007 09/07 Q1033 TEMPO 2500
EDDHMETAR lang
Hamburg-Fuhlsbuettel, Germany (EDDH) 53-38N 010-00E 15M
Mar 22, 2019 - 01:50 AM EDT / 2019.03.22 0550 UTC
Wind: Variable at 1 MPH (1 KT):0
Visibility: 2 mile(s):0
Sky conditions: overcast
Weather: mist
Temperature: 48 F (9 C)
Dew Point: 44 F (7 C)
Relative Humidity: 87%
Pressure (altimeter): 30.50 in. Hg (1033 hPa)
ob: EDDH 220550Z VRB01KT 4500 BR OVC007 09/07 Q1033 TEMPO 2500
cycle: 6

Köln - Bonn

EDDK

METAR
EDDK 220550Z VRB01KT CAVOK 03/02 Q1031 NOSIG
EDDKMETAR lang
Koeln / Bonn, Germany (EDDK) 50-52N 007-10E 100M
Mar 22, 2019 - 01:50 AM EDT / 2019.03.22 0550 UTC
Wind: Variable at 1 MPH (1 KT):0
Visibility: greater than 7 mile(s):0
Temperature: 37 F (3 C)
Dew Point: 35 F (2 C)
Relative Humidity: 93%
Pressure (altimeter): 30.45 in. Hg (1031 hPa)
ob: EDDK 220550Z VRB01KT CAVOK 03/02 Q1031 NOSIG
cycle: 6

Düsseldorf

EDDL

METAR
EDDL 220550Z 03002KT CAVOK 03/03 Q1031 NOSIG
EDDLMETAR lang
Duesseldorf, Germany (EDDL) 51-18N 006-46E 41M
Mar 22, 2019 - 01:50 AM EDT / 2019.03.22 0550 UTC
Wind: from the NNE (030 degrees) at 2 MPH (2 KT):0
Visibility: greater than 7 mile(s):0
Temperature: 37 F (3 C)
Dew Point: 37 F (3 C)
Relative Humidity: 100%
Pressure (altimeter): 30.45 in. Hg (1031 hPa)
ob: EDDL 220550Z 03002KT CAVOK 03/03 Q1031 NOSIG
cycle: 6

München

EDDM

METAR
EDDM 220550Z VRB01KT CAVOK M02/M04 Q1030 NOSIG
EDDMMETAR lang
Munchen, Germany (EDDM) 48-21N 011-47E
Mar 22, 2019 - 01:50 AM EDT / 2019.03.22 0550 UTC
Wind: Variable at 1 MPH (1 KT):0
Visibility: greater than 7 mile(s):0
Temperature: 28 F (-2 C)
Dew Point: 24 F (-4 C)
Relative Humidity: 86%
Pressure (altimeter): 30.42 in. Hg (1030 hPa)
ob: EDDM 220550Z VRB01KT CAVOK M02/M04 Q1030 NOSIG
cycle: 6

Nürnberg

EDDN

METAR
EDDN 220550Z VRB02KT CAVOK M00/M02 Q1031 NOSIG
EDDNMETAR lang
Nuernberg, Germany (EDDN) 49-30N 011-03E 318M
Mar 22, 2019 - 01:50 AM EDT / 2019.03.22 0550 UTC
Wind: Variable at 2 MPH (2 KT):0
Visibility: greater than 7 mile(s):0
Temperature: 32 F (0 C)
Dew Point: 28 F (-2 C)
Relative Humidity: 86%
Pressure (altimeter): 30.45 in. Hg (1031 hPa)
ob: EDDN 220550Z VRB02KT CAVOK M00/M02 Q1031 NOSIG
cycle: 6

Leipzig - Halle

EDDP

METAR
EDDP 220550Z 16003KT 6000 BCFG NSC 04/03 Q1033 BECMG 4000 BR
EDDPMETAR lang
Leipzig-Schkeuditz, Germany (EDDP) 51-25N 012-14E 149M
Mar 22, 2019 - 01:50 AM EDT / 2019.03.22 0550 UTC
Wind: from the SSE (160 degrees) at 3 MPH (3 KT):0
Visibility: 3 mile(s):0
Weather: patches of fog
Temperature: 39 F (4 C)
Dew Point: 37 F (3 C)
Relative Humidity: 93%
Pressure (altimeter): 30.50 in. Hg (1033 hPa)
ob: EDDP 220550Z 16003KT 6000 BCFG NSC 04/03 Q1033 BECMG 4000 BR
cycle: 6

Saarbrücken

EDDR

METAR
EDDR 220550Z 09004KT CAVOK 03/M01 Q1030
EDDRMETAR lang
Saarbruecken / Ensheim, Germany (EDDR) 49-13N 007-07E 320M
Mar 22, 2019 - 01:50 AM EDT / 2019.03.22 0550 UTC
Wind: from the E (090 degrees) at 5 MPH (4 KT):0
Visibility: greater than 7 mile(s):0
Temperature: 37 F (3 C)
Dew Point: 30 F (-1 C)
Relative Humidity: 74%
Pressure (altimeter): 30.42 in. Hg (1030 hPa)
ob: EDDR 220550Z 09004KT CAVOK 03/M01 Q1030
cycle: 6

Stuttgart

EDDS

METAR
EDDS 220550Z 00000KT CAVOK M00/M03 Q1030 NOSIG
EDDSMETAR lang
Stuttgart-Echterdingen, Germany (EDDS) 48-41N 009-13E 391M
Mar 22, 2019 - 01:50 AM EDT / 2019.03.22 0550 UTC
Wind: Calm:0
Visibility: greater than 7 mile(s):0
Temperature: 32 F (0 C)
Dew Point: 26 F (-3 C)
Relative Humidity: 80%
Pressure (altimeter): 30.42 in. Hg (1030 hPa)
ob: EDDS 220550Z 00000KT CAVOK M00/M03 Q1030 NOSIG
cycle: 6

Berlin - Tegel

EDDT

METAR
EDDT 220550Z VRB02KT 5000 BR OVC009 09/07 Q1033 TEMPO 4500 BR
EDDTMETAR lang
Berlin-Tegel, Germany (EDDT) 52-34N 013-19E 37M
Mar 22, 2019 - 01:50 AM EDT / 2019.03.22 0550 UTC
Wind: Variable at 2 MPH (2 KT):0
Visibility: 3 mile(s):0
Sky conditions: overcast
Weather: mist
Temperature: 48 F (9 C)
Dew Point: 44 F (7 C)
Relative Humidity: 87%
Pressure (altimeter): 30.50 in. Hg (1033 hPa)
ob: EDDT 220550Z VRB02KT 5000 BR OVC009 09/07 Q1033 TEMPO 4500 BR
cycle: 6

Hannover

EDDV

METAR
EDDV 220550Z 09004KT 0100 R27R/0250N R27L/0275N FG BKN001 03/03 Q1033 TEMPO 0500
EDDVMETAR lang
Hannover, Germany (EDDV) 52-28N 009-41E 59M
Mar 22, 2019 - 01:50 AM EDT / 2019.03.22 0550 UTC
Wind: from the E (090 degrees) at 5 MPH (4 KT):0
Visibility: less than 1 mile:0
Sky conditions: mostly cloudy
Weather: fog
Temperature: 37 F (3 C)
Dew Point: 37 F (3 C)
Relative Humidity: 100%
Pressure (altimeter): 30.50 in. Hg (1033 hPa)
ob: EDDV 220550Z 09004KT 0100 R27R/0250N R27L/0275N FG BKN001 03/03 Q1033 TEMPO 0500
cycle: 6

Bremen

EDDW

METAR
EDDW 220550Z VRB02KT 1200 R27/1900D BR BKN008 06/06 Q1033 TEMPO 0500 FG
EDDWMETAR lang
Bremen, Germany (EDDW) 53-03N 008-48E 5M
Mar 22, 2019 - 01:50 AM EDT / 2019.03.22 0550 UTC
Wind: Variable at 2 MPH (2 KT):0
Visibility: less than 1 mile:0
Sky conditions: mostly cloudy
Weather: mist
Temperature: 42 F (6 C)
Dew Point: 42 F (6 C)
Relative Humidity: 100%
Pressure (altimeter): 30.50 in. Hg (1033 hPa)
ob: EDDW 220550Z VRB02KT 1200 R27/1900D BR BKN008 06/06 Q1033 TEMPO 0500 FG
cycle: 6